Time;durP1;ratioP1;P1;durP2;ratioP2;P2;SDS_P1;SDS_P2;PMS_P1;PMS_P2;Temp;Humidity;BMP_temperature;BMP_pressure;BME280_temperature;BME280_humidity;BME280_pressure;Samples;Min_cycle;Max_cycle;Signal;HPM_P1;HPM_P2
2022/09/11 00:02:22;;;;;;;5.03;2.58;;;;;12.50;94187.00;;;;7389205;19;20451;-77
2022/09/11 00:04:52;;;;;;;4.50;2.58;;;;;12.60;94183.00;;;;7390194;19;20147;-78
2022/09/11 00:07:29;;;;;;;4.78;2.65;;;;;12.50;94189.00;;;;7388926;19;20140;-78
2022/09/11 00:09:57;;;;;;;5.57;2.83;;;;;12.60;94172.00;;;;7389194;19;20165;-77
2022/09/11 00:12:25;;;;;;;4.95;2.75;;;;;12.50;94170.00;;;;7388516;19;20140;-78
2022/09/11 00:15:06;;;;;;;4.03;2.70;;;;;12.60;94178.00;;;;7385647;19;20158;-78
2022/09/11 00:17:33;;;;;;;4.78;2.80;;;;;12.60;94169.00;;;;7389012;19;20129;-77
2022/09/11 00:20:04;;;;;;;7.05;3.17;;;;;12.60;94166.00;;;;7389540;19;20153;-78
2022/09/11 00:22:46;;;;;;;6.90;3.28;;;;;12.60;94177.00;;;;7387162;19;20224;-78
2022/09/11 00:25:20;;;;;;;7.25;3.20;;;;;12.60;94178.00;;;;7394274;19;20124;-78
2022/09/11 00:27:54;;;;;;;5.65;3.22;;;;;12.60;94165.00;;;;7396730;19;20132;-79
2022/09/11 00:30:22;;;;;;;4.90;3.22;;;;;12.70;94173.00;;;;7397385;19;20121;-79
2022/09/11 00:32:49;;;;;;;7.32;3.33;;;;;12.70;94170.00;;;;7395453;19;20131;-77
2022/09/11 00:35:26;;;;;;;6.50;4.13;;;;;12.70;94169.00;;;;7392972;19;20137;-78
2022/09/11 00:37:53;;;;;;;5.53;3.10;;;;;12.70;94172.00;;;;7395421;19;20160;-78
2022/09/11 00:40:24;;;;;;;4.00;3.60;;;;;12.70;94172.00;;;;7395272;19;20200;-78
2022/09/11 00:42:58;;;;;;;8.63;3.85;;;;;12.70;94173.00;;;;7394434;19;20144;-77
2022/09/11 00:45:27;;;;;;;6.45;3.60;;;;;12.60;94180.00;;;;7398063;19;20598;-77
2022/09/11 00:47:58;;;;;;;6.90;3.53;;;;;12.60;94179.00;;;;7396328;19;20551;-76
2022/09/11 00:50:34;;;;;;;8.98;3.78;;;;;12.50;94178.00;;;;7395724;19;20212;-78
2022/09/11 00:53:07;;;;;;;7.05;3.80;;;;;12.50;94178.00;;;;7395411;19;20133;-77
2022/09/11 00:55:49;;;;;;;6.93;4.10;;;;;12.50;94176.00;;;;7408461;19;20153;-77
2022/09/11 00:58:22;;;;;;;8.68;4.40;;;;;12.40;94169.00;;;;7400754;19;20618;-78
2022/09/11 01:00:56;;;;;;;9.00;4.15;;;;;12.30;94184.00;;;;7400153;19;20143;-79
2022/09/11 01:03:27;;;;;;;9.95;3.85;;;;;12.40;94180.00;;;;7405617;19;20158;-80
2022/09/11 01:05:56;;;;;;;6.32;4.28;;;;;12.50;94178.00;;;;7409869;19;20128;-78
2022/09/11 01:08:30;;;;;;;8.95;4.65;;;;;12.40;94187.00;;;;7411301;19;20160;-81
2022/09/11 01:11:18;;;;;;;9.35;5.50;;;;;12.40;94182.00;;;;7410664;19;20131;-79
2022/09/11 01:17:32;;;;;;;9.35;6.70;;;;;12.50;94172.00;;;;7404479;19;20139;-79
2022/09/11 01:20:20;;;;;;;9.63;7.13;;;;;12.50;94176.00;;;;7403675;19;20137;-79
2022/09/11 01:23:31;;;;;;;11.98;6.93;;;;;12.50;94185.00;;;;7417174;19;20181;-78
2022/09/11 01:26:27;;;;;;;10.07;7.43;;;;;12.40;94171.00;;;;7410568;19;20141;-80
2022/09/11 01:28:58;;;;;;;13.93;7.90;;;;;12.50;94186.00;;;;7418097;19;20136;-78
2022/09/11 01:31:45;;;;;;;12.05;7.75;;;;;12.40;94176.00;;;;7413318;19;20144;-78
2022/09/11 01:34:24;;;;;;;13.48;8.25;;;;;12.50;94186.00;;;;7420520;19;20129;-79
2022/09/11 01:37:04;;;;;;;13.70;8.32;;;;;12.50;94186.00;;;;7401353;19;20192;-79
2022/09/11 01:39:44;;;;;;;16.38;9.38;;;;;12.60;94192.00;;;;7402219;19;20135;-79
2022/09/11 01:42:21;;;;;;;18.23;9.23;;;;;12.50;94180.00;;;;7414167;19;20749;-79
2022/09/11 01:44:56;;;;;;;9.30;6.15;;;;;12.60;94186.00;;;;7413098;19;20151;-78
2022/09/11 01:47:33;;;;;;;6.63;5.45;;;;;12.50;94190.00;;;;7400112;19;20125;-80
2022/09/11 01:50:07;;;;;;;7.55;5.63;;;;;12.60;94185.00;;;;7413737;19;20125;-80
2022/09/11 01:53:02;;;;;;;11.75;6.03;;;;;12.40;94184.00;;;;7405725;19;20143;-78
2022/09/11 01:55:44;;;;;;;8.45;4.72;;;;;12.60;94200.00;;;;7403076;19;20129;-78
2022/09/11 01:58:26;;;;;;;6.35;4.50;;;;;12.50;94185.00;;;;7396980;19;20144;-79
2022/09/11 02:01:05;;;;;;;5.43;4.75;;;;;12.50;94188.00;;;;7410671;19;20135;-78
2022/09/11 02:03:43;;;;;;;6.95;4.75;;;;;12.40;94184.00;;;;7396613;19;20141;-80
2022/09/11 02:06:20;;;;;;;7.20;4.32;;;;;12.50;94181.00;;;;7396717;19;20141;-79
2022/09/11 02:08:59;;;;;;;7.55;4.90;;;;;12.50;94181.00;;;;7406573;19;20635;-80
2022/09/11 02:11:30;;;;;;;5.28;4.35;;;;;12.50;94180.00;;;;7408375;19;20135;-81
2022/09/11 02:14:06;;;;;;;11.18;4.57;;;;;12.50;94184.00;;;;7408568;19;20177;-80
2022/09/11 02:16:48;;;;;;;8.77;5.40;;;;;12.50;94194.00;;;;7403376;19;20172;-78
2022/09/11 02:19:28;;;;;;;7.65;5.38;;;;;12.40;94180.00;;;;7399928;19;20125;-79
2022/09/11 02:22:09;;;;;;;8.20;6.90;;;;;12.50;94183.00;;;;7398630;19;20141;-79
2022/09/11 02:24:44;;;;;;;9.93;6.47;;;;;12.50;94191.00;;;;7399034;19;20173;-79
2022/09/11 02:27:16;;;;;;;13.38;8.48;;;;;12.50;94196.00;;;;7403187;19;20125;-80
2022/09/11 02:29:52;;;;;;;13.38;9.48;;;;;12.50;94199.00;;;;7406652;19;20615;-79
2022/09/11 02:32:27;;;;;;;20.25;10.88;;;;;12.50;94190.00;;;;7404411;19;20128;-79
2022/09/11 02:35:01;;;;;;;16.30;11.70;;;;;12.40;94201.00;;;;7405275;19;20129;-78
2022/09/11 02:37:48;;;;;;;23.88;15.05;;;;;12.50;94196.00;;;;7406629;19;20135;-80
2022/09/11 02:40:45;;;;;;;19.23;14.30;;;;;12.50;94195.00;;;;7409012;19;20155;-79
2022/09/11 02:43:58;;;;;;;23.38;13.38;;;;;12.50;94198.00;;;;7414612;19;20145;-80
2022/09/11 02:46:58;;;;;;;24.30;14.80;;;;;12.60;94198.00;;;;7414636;19;20129;-81
2022/09/11 02:49:53;;;;;;;25.60;14.75;;;;;12.50;94200.00;;;;7412848;19;20131;-78
2022/09/11 02:53:09;;;;;;;21.10;14.30;;;;;12.40;94202.00;;;;7411743;19;20760;-79
2022/09/11 02:56:13;;;;;;;19.25;15.45;;;;;12.60;94212.00;;;;7404285;19;20137;-79
2022/09/11 02:59:02;;;;;;;22.15;14.43;;;;;12.50;94198.00;;;;7415823;19;20140;-78
2022/09/11 03:01:30;;;;;;;23.55;15.18;;;;;12.60;94198.00;;;;7412584;19;20125;-80
2022/09/11 03:04:04;;;;;;;20.38;13.98;;;;;12.60;94211.00;;;;7421216;19;20161;-79
2022/09/11 03:06:47;;;;;;;23.42;15.88;;;;;12.50;94204.00;;;;7414750;19;20180;-77
2022/09/11 03:09:24;;;;;;;18.08;14.77;;;;;12.50;94210.00;;;;7416905;19;20137;-84
2022/09/11 03:11:53;;;;;;;22.08;15.27;;;;;12.40;94204.00;;;;7420941;19;20145;-81
2022/09/11 03:14:24;;;;;;;18.52;14.93;;;;;12.40;94207.00;;;;7422504;19;20117;-74
2022/09/11 03:17:12;;;;;;;22.08;16.52;;;;;12.50;94203.00;;;;7395522;19;20188;-79
2022/09/11 03:19:42;;;;;;;23.27;15.43;;;;;12.50;94205.00;;;;7405179;19;20109;-78
2022/09/11 03:22:20;;;;;;;17.48;14.10;;;;;12.50;94208.00;;;;7422912;19;20142;-74
2022/09/11 03:24:47;;;;;;;20.48;16.02;;;;;12.50;94210.00;;;;7414251;19;20141;-80
2022/09/11 03:27:16;;;;;;;22.70;15.50;;;;;12.60;94226.00;;;;7399314;19;20144;-80
2022/09/11 03:29:49;;;;;;;24.40;17.33;;;;;12.50;94213.00;;;;7394079;19;20148;-77
2022/09/11 03:32:21;;;;;;;21.80;16.70;;;;;12.60;94224.00;;;;7396578;19;20137;-79
2022/09/11 03:34:49;;;;;;;22.83;17.00;;;;;12.50;94215.00;;;;7396355;19;20200;-80
2022/09/11 03:37:23;;;;;;;20.10;14.95;;;;;12.50;94222.00;;;;7393402;19;20139;-80
2022/09/11 03:39:53;;;;;;;24.13;16.13;;;;;12.50;94222.00;;;;7401572;19;20137;-78
2022/09/11 03:42:20;;;;;;;23.48;15.80;;;;;12.60;94221.00;;;;7400851;19;20121;-79
2022/09/11 03:44:57;;;;;;;20.70;15.40;;;;;12.50;94224.00;;;;7402350;19;20607;-78
2022/09/11 03:47:27;;;;;;;30.15;17.23;;;;;12.50;94217.00;;;;7402272;19;20121;-78
2022/09/11 03:49:54;;;;;;;28.10;17.98;;;;;12.50;94221.00;;;;7403006;19;20121;-75
2022/09/11 03:52:31;;;;;;;27.63;19.10;;;;;12.50;94227.00;;;;7402593;19;20544;-76
2022/09/11 03:54:59;;;;;;;26.98;18.63;;;;;12.40;94223.00;;;;7404815;19;20141;-78
2022/09/11 03:57:26;;;;;;;24.42;17.52;;;;;12.40;94231.00;;;;7408098;19;20827;-76
2022/09/11 04:00:02;;;;;;;24.20;16.85;;;;;12.40;94233.00;;;;7411931;19;20143;-76
2022/09/11 04:02:30;;;;;;;25.15;16.90;;;;;12.50;94227.00;;;;7409203;19;20148;-75
2022/09/11 04:04:58;;;;;;;25.10;18.35;;;;;12.50;94239.00;;;;7408647;19;20140;-77
2022/09/11 04:07:33;;;;;;;25.13;17.17;;;;;12.50;94229.00;;;;7411452;19;20137;-78
2022/09/11 04:10:01;;;;;;;27.50;18.02;;;;;12.50;94226.00;;;;7407516;19;20165;-79
2022/09/11 04:12:28;;;;;;;29.10;19.13;;;;;12.70;94224.00;;;;7405161;19;20254;-78
2022/09/11 04:15:01;;;;;;;24.90;19.08;;;;;12.60;94229.00;;;;7413486;19;20121;-80
2022/09/11 04:17:42;;;;;;;25.25;17.90;;;;;12.60;94222.00;;;;7411187;19;20148;-82
2022/09/11 04:20:19;;;;;;;26.90;17.70;;;;;12.50;94223.00;;;;7408952;19;20125;-79
2022/09/11 04:22:46;;;;;;;27.77;19.55;;;;;12.60;94226.00;;;;7409473;19;20125;-76
2022/09/11 04:25:14;;;;;;;36.35;19.15;;;;;12.40;94222.00;;;;7412375;19;20145;-78
2022/09/11 04:27:48;;;;;;;21.30;16.52;;;;;12.30;94226.00;;;;7411118;19;20204;-78
2022/09/11 04:30:18;;;;;;;26.13;17.17;;;;;12.50;94220.00;;;;7407996;19;20480;-77
2022/09/11 04:32:58;;;;;;;23.42;16.73;;;;;12.40;94227.00;;;;7406961;19;20133;-79
2022/09/11 04:35:35;;;;;;;26.77;17.15;;;;;12.30;94224.00;;;;7406290;19;20142;-80
2022/09/11 04:38:02;;;;;;;24.73;17.13;;;;;12.30;94223.00;;;;7406458;19;20600;-78
2022/09/11 04:40:35;;;;;;;25.48;16.48;;;;;12.30;94227.00;;;;7408649;19;20141;-79
2022/09/11 04:43:10;;;;;;;22.83;16.98;;;;;12.40;94235.00;;;;7407995;19;20128;-79
2022/09/11 04:45:39;;;;;;;25.00;17.83;;;;;12.30;94239.00;;;;7405256;19;20160;-79
2022/09/11 04:48:06;;;;;;;24.40;16.67;;;;;12.30;94243.00;;;;7405796;19;20137;-78
2022/09/11 04:50:40;;;;;;;20.33;15.40;;;;;12.40;94249.00;;;;7408993;19;20128;-78
2022/09/11 04:53:10;;;;;;;25.20;16.73;;;;;12.50;94246.00;;;;7405782;19;20475;-78
2022/09/11 04:55:40;;;;;;;26.83;16.52;;;;;12.50;94262.00;;;;7405865;19;20160;-78
2022/09/11 04:58:17;;;;;;;25.48;16.50;;;;;12.50;94258.00;;;;7402356;19;20146;-79
2022/09/11 05:00:47;;;;;;;26.23;17.58;;;;;12.40;94257.00;;;;7399803;19;20749;-79
2022/09/11 05:03:14;;;;;;;22.27;16.00;;;;;12.30;94261.00;;;;7404743;19;20165;-78
2022/09/11 05:05:51;;;;;;;23.05;16.55;;;;;12.30;94268.00;;;;7400154;19;20504;-77
2022/09/11 05:08:22;;;;;;;26.05;15.80;;;;;12.40;94271.00;;;;7398201;19;20607;-79
2022/09/11 05:10:52;;;;;;;25.45;17.40;;;;;12.30;94272.00;;;;7400533;19;20121;-77
2022/09/11 05:13:27;;;;;;;23.58;15.68;;;;;12.30;94276.00;;;;7411158;19;20132;-80
2022/09/11 05:16:20;;;;;;;28.83;16.58;;;;;12.30;94268.00;;;;7402391;19;20132;-78
2022/09/11 05:18:55;;;;;;;23.05;16.70;;;;;12.30;94265.00;;;;7417293;19;20135;-81
2022/09/11 05:21:24;;;;;;;22.83;16.50;;;;;12.30;94269.00;;;;7410473;19;20176;-80
2022/09/11 05:23:54;;;;;;;25.10;16.83;;;;;12.30;94271.00;;;;7405094;19;20121;-78
2022/09/11 05:26:31;;;;;;;26.00;17.75;;;;;12.40;94270.00;;;;7403672;19;20160;-77
2022/09/11 05:29:01;;;;;;;29.75;18.23;;;;;12.50;94274.00;;;;7398189;19;20127;-78
2022/09/11 05:31:36;;;;;;;26.02;17.27;;;;;12.40;94271.00;;;;7407695;19;20125;-78
2022/09/11 05:34:04;;;;;;;34.97;18.88;;;;;12.40;94276.00;;;;7399632;19;20133;-79
2022/09/11 05:36:32;;;;;;;27.85;20.40;;;;;12.50;94267.00;;;;7397608;19;20592;-77
2022/09/11 05:39:11;;;;;;;29.10;19.70;;;;;12.50;94280.00;;;;7400381;19;20618;-78
2022/09/11 05:41:38;;;;;;;26.90;19.25;;;;;12.50;94281.00;;;;7402626;19;20135;-79
2022/09/11 05:44:08;;;;;;;28.63;18.67;;;;;12.50;94284.00;;;;7402227;19;20233;-78
2022/09/11 05:46:42;;;;;;;32.17;19.70;;;;;12.60;94288.00;;;;7389486;19;20192;-76
2022/09/11 05:49:18;;;;;;;30.15;19.70;;;;;12.50;94294.00;;;;7396029;19;20144;-78
2022/09/11 05:51:45;;;;;;;25.63;17.92;;;;;12.70;94300.00;;;;7392375;19;20132;-77
2022/09/11 05:54:43;;;;;;;26.08;18.20;;;;;12.60;94300.00;;;;7393231;19;20141;-77
2022/09/11 05:57:18;;;;;;;25.27;18.33;;;;;12.60;94308.00;;;;7395529;19;20145;-80
2022/09/11 05:59:55;;;;;;;28.55;18.10;;;;;12.60;94304.00;;;;7394466;19;20615;-77
2022/09/11 06:02:22;;;;;;;23.85;17.48;;;;;12.70;94307.00;;;;7394869;19;20128;-77
2022/09/11 06:04:55;;;;;;;24.33;18.00;;;;;12.90;94311.00;;;;7395997;19;20156;-77
2022/09/11 06:07:29;;;;;;;27.92;17.75;;;;;12.90;94317.00;;;;7393208;19;20145;-78
2022/09/11 06:09:59;;;;;;;27.10;19.10;;;;;12.90;94312.00;;;;7394774;19;20342;-76
2022/09/11 06:12:29;;;;;;;28.35;17.63;;;;;12.90;94315.00;;;;7396984;19;20148;-77
2022/09/11 06:15:10;;;;;;;25.10;17.70;;;;;13.00;94317.00;;;;7396491;19;20216;-78
2022/09/11 06:18:06;;;;;;;26.50;18.30;;;;;12.90;94319.00;;;;7394068;19;20187;-78
2022/09/11 06:20:42;;;;;;;24.17;18.25;;;;;12.80;94328.00;;;;7395448;19;20188;-77
2022/09/11 06:23:10;;;;;;;23.50;17.27;;;;;12.90;94328.00;;;;7394445;19;20227;-76
2022/09/11 06:25:38;;;;;;;24.83;17.38;;;;;13.00;94346.00;;;;7396785;19;20125;-77
2022/09/11 06:28:12;;;;;;;24.65;17.55;;;;;13.10;94329.00;;;;7394435;19;20145;-77
2022/09/11 06:30:42;;;;;;;25.58;18.35;;;;;13.00;94340.00;;;;7393088;19;21145;-77
2022/09/11 06:33:10;;;;;;;20.45;16.67;;;;;13.10;94346.00;;;;7395733;19;20157;-76
2022/09/11 06:35:44;;;;;;;23.08;16.15;;;;;13.00;94336.00;;;;7393704;19;20220;-77
2022/09/11 06:38:15;;;;;;;22.88;16.33;;;;;13.10;94341.00;;;;7392591;19;20129;-76
2022/09/11 06:40:42;;;;;;;22.27;16.52;;;;;13.10;94341.00;;;;7393882;19;20224;-77
2022/09/11 06:43:21;;;;;;;20.48;15.27;;;;;13.10;94348.00;;;;7395626;19;20595;-76
2022/09/11 06:45:50;;;;;;;20.52;15.80;;;;;13.20;94335.00;;;;7394512;19;20149;-77
2022/09/11 06:48:18;;;;;;;22.35;15.95;;;;;13.10;94341.00;;;;7393643;19;20526;-77
2022/09/11 06:50:53;;;;;;;19.70;16.00;;;;;13.20;94337.00;;;;7396565;19;20124;-77
2022/09/11 06:53:23;;;;;;;21.60;16.23;;;;;13.20;94333.00;;;;7393099;19;20129;-76
2022/09/11 06:55:56;;;;;;;21.45;16.23;;;;;13.30;94337.00;;;;7395306;19;20228;-76
2022/09/11 06:58:33;;;;;;;17.67;15.50;;;;;13.30;94342.00;;;;7393460;19;20131;-77
2022/09/11 07:01:10;;;;;;;18.48;15.05;;;;;13.30;94344.00;;;;7394011;19;20180;-76
2022/09/11 07:03:49;;;;;;;18.48;15.40;;;;;13.20;94339.00;;;;7393289;19;20143;-76
2022/09/11 07:06:26;;;;;;;17.83;14.02;;;;;13.20;94343.00;;;;7393226;19;20219;-77
2022/09/11 07:09:03;;;;;;;15.90;14.20;;;;;13.20;94339.00;;;;7394587;19;20200;-77
2022/09/11 07:11:42;;;;;;;17.38;14.95;;;;;13.50;94348.00;;;;7395008;19;20504;-77
2022/09/11 07:14:23;;;;;;;18.35;14.32;;;;;13.50;94348.00;;;;7393791;19;20132;-77
2022/09/11 07:16:57;;;;;;;18.58;14.32;;;;;13.60;94350.00;;;;7393616;19;20157;-77
2022/09/11 07:19:36;;;;;;;21.15;14.90;;;;;13.50;94345.00;;;;7391578;19;20223;-78
2022/09/11 07:22:04;;;;;;;17.85;13.98;;;;;13.40;94349.00;;;;7392469;19;20124;-76
2022/09/11 07:24:32;;;;;;;15.68;14.07;;;;;13.60;94350.00;;;;7391303;19;20149;-77
2022/09/11 07:27:09;;;;;;;16.48;14.38;;;;;13.70;94355.00;;;;7394154;19;20167;-78
2022/09/11 07:29:36;;;;;;;17.15;13.30;;;;;13.70;94351.00;;;;7389424;19;20666;-79
2022/09/11 07:32:08;;;;;;;20.98;15.38;;;;;13.60;94365.00;;;;7393213;19;20153;-78
2022/09/11 07:34:46;;;;;;;18.92;13.40;;;;;13.40;94371.00;;;;7395078;19;20163;-77
2022/09/11 07:37:13;;;;;;;14.95;13.43;;;;;13.70;94373.00;;;;7398201;19;20141;-77
2022/09/11 07:39:41;;;;;;;16.50;13.40;;;;;13.80;94371.00;;;;7397409;19;20152;-76
2022/09/11 07:42:15;;;;;;;15.90;13.73;;;;;13.90;94372.00;;;;7401195;19;20132;-76
2022/09/11 07:44:42;;;;;;;13.65;12.25;;;;;13.80;94377.00;;;;7398447;19;20629;-75
2022/09/11 07:47:10;;;;;;;13.57;12.18;;;;;13.80;94391.00;;;;7400406;19;20133;-77
2022/09/11 07:49:46;;;;;;;14.70;13.20;;;;;13.70;94392.00;;;;7396704;19;20159;-75
2022/09/11 07:52:16;;;;;;;15.43;12.70;;;;;13.90;94381.00;;;;7398341;19;20186;-75
2022/09/11 07:54:54;;;;;;;15.43;12.63;;;;;13.70;94383.00;;;;7398073;19;20529;-77
2022/09/11 07:57:23;;;;;;;14.63;13.10;;;;;13.80;94384.00;;;;7399330;19;20133;-77
2022/09/11 07:59:50;;;;;;;15.18;12.40;;;;;13.90;94385.00;;;;7394019;19;20141;-76
2022/09/11 08:02:24;;;;;;;14.55;12.23;;;;;14.20;94372.00;;;;7398615;19;20136;-78
2022/09/11 08:04:57;;;;;;;20.13;13.43;;;;;14.70;94377.00;;;;7391703;19;20133;-75
2022/09/11 08:07:27;;;;;;;16.85;12.82;;;;;14.70;94364.00;;;;7392294;19;20152;-78
2022/09/11 08:10:04;;;;;;;14.48;11.90;;;;;15.10;94372.00;;;;7393709;19;20496;-75
2022/09/11 08:12:52;;;;;;;15.55;11.85;;;;;15.60;94374.00;;;;7397028;19;20742;-76
2022/09/11 08:15:26;;;;;;;11.73;10.45;;;;;15.70;94380.00;;;;7396235;19;20223;-79
2022/09/11 08:18:01;;;;;;;15.13;11.63;;;;;15.20;94383.00;;;;7391852;19;20218;-79
2022/09/11 08:20:35;;;;;;;11.65;10.27;;;;;15.10;94381.00;;;;7397758;19;20169;-78
2022/09/11 08:23:03;;;;;;;11.80;10.27;;;;;15.10;94383.00;;;;7398957;19;20127;-76
2022/09/11 08:25:30;;;;;;;11.93;10.82;;;;;15.10;94389.00;;;;7395388;19;20645;-77
2022/09/11 08:28:05;;;;;;;11.57;10.38;;;;;14.80;94395.00;;;;7396091;19;20152;-77
2022/09/11 08:30:36;;;;;;;12.45;10.35;;;;;14.70;94395.00;;;;7397188;19;20658;-78
2022/09/11 08:33:05;;;;;;;11.95;10.75;;;;;14.50;94404.00;;;;7399376;19;20148;-77
2022/09/11 08:35:39;;;;;;;11.80;10.60;;;;;14.80;94390.00;;;;7398986;19;20144;-77
2022/09/11 08:38:07;;;;;;;10.38;9.38;;;;;15.20;94383.00;;;;7397240;19;20141;-77
2022/09/11 08:40:37;;;;;;;14.15;11.43;;;;;15.80;94389.00;;;;7398192;19;20612;-78
2022/09/11 08:43:31;;;;;;;12.25;9.48;;;;;15.40;94396.00;;;;7403669;19;20156;-77
2022/09/11 08:46:04;;;;;;;13.05;10.00;;;;;15.10;94394.00;;;;7398258;19;20152;-77
2022/09/11 08:49:01;;;;;;;11.55;10.00;;;;;15.10;94405.00;;;;7405964;19;20623;-77
2022/09/11 08:51:30;;;;;;;10.85;9.75;;;;;15.50;94383.00;;;;7403425;19;20133;-78
2022/09/11 08:54:05;;;;;;;11.82;9.88;;;;;15.80;94395.00;;;;7401007;19;20168;-75
2022/09/11 08:56:35;;;;;;;13.77;9.90;;;;;16.00;94392.00;;;;7392779;19;20160;-77
2022/09/11 08:59:30;;;;;;;11.10;9.07;;;;;15.80;94385.00;;;;7387393;19;20231;-77
2022/09/11 09:02:44;;;;;;;9.98;8.75;;;;;16.60;94392.00;;;;7398472;19;20144;-78
2022/09/11 09:06:15;;;;;;;8.68;7.85;;;;;15.90;94415.00;;;;6917606;19;9931111;-79
2022/09/11 09:09:17;;;;;;;10.68;8.80;;;;;15.50;94413.00;;;;7432040;19;20152;-79
2022/09/11 09:12:08;;;;;;;8.82;8.02;;;;;15.40;94413.00;;;;7433292;19;20133;-79
2022/09/11 09:15:16;;;;;;;12.10;8.65;;;;;15.70;94411.00;;;;7436212;19;20144;-78
2022/09/11 09:18:11;;;;;;;10.30;8.75;;;;;15.70;94420.00;;;;7436402;19;20132;-78
2022/09/11 09:20:59;;;;;;;9.88;8.40;;;;;15.80;94420.00;;;;7437384;19;20132;-77
2022/09/11 09:23:41;;;;;;;9.77;8.70;;;;;16.00;94423.00;;;;7434253;19;20151;-79
2022/09/11 09:26:18;;;;;;;9.65;8.63;;;;;15.90;94420.00;;;;7434180;19;20148;-78
2022/09/11 09:28:49;;;;;;;11.95;8.65;;;;;16.50;94420.00;;;;7431053;19;20144;-78
2022/09/11 09:31:28;;;;;;;11.73;8.85;;;;;16.90;94397.00;;;;7435662;19;20132;-79
2022/09/11 09:34:01;;;;;;;10.10;8.40;;;;;17.40;94397.00;;;;7435971;19;20173;-78
2022/09/11 09:37:15;;;;;;;9.18;8.30;;;;;17.50;94408.00;;;;7438252;19;20148;-77
2022/09/11 09:39:43;;;;;;;9.73;8.73;;;;;17.70;94401.00;;;;7437096;19;20517;-78
2022/09/11 09:42:18;;;;;;;9.38;7.45;;;;;18.10;94401.00;;;;7437251;19;20116;-76
2022/09/11 09:45:08;;;;;;;8.50;7.60;;;;;18.80;94409.00;;;;7435955;19;20171;-76
2022/09/11 09:47:43;;;;;;;9.02;7.43;;;;;18.80;94398.00;;;;7436497;19;20494;-77
2022/09/11 09:50:34;;;;;;;6.32;5.72;;;;;18.90;94420.00;;;;7436819;19;20176;-77
2022/09/11 09:53:23;;;;;;;8.20;6.88;;;;;18.10;94418.00;;;;7439501;19;20155;-77
2022/09/11 09:55:53;;;;;;;6.53;5.95;;;;;18.10;94410.00;;;;7434148;19;20115;-76
2022/09/11 09:58:38;;;;;;;7.10;6.40;;;;;18.10;94404.00;;;;7429152;19;20701;-79
2022/09/11 10:01:44;;;;;;;8.18;6.68;;;;;18.10;94415.00;;;;7432072;19;20163;-78
2022/09/11 10:04:33;;;;;;;7.28;6.57;;;;;17.90;94410.00;;;;7429520;19;20206;-78
2022/09/11 10:07:14;;;;;;;7.18;6.47;;;;;18.00;94402.00;;;;7433704;19;20633;-77
2022/09/11 10:09:53;;;;;;;6.95;6.25;;;;;18.90;94396.00;;;;7433494;19;20132;-77
2022/09/11 10:12:27;;;;;;;5.70;5.10;;;;;19.10;94404.00;;;;7433841;19;20176;-77
2022/09/11 10:15:03;;;;;;;7.00;6.00;;;;;19.00;94396.00;;;;7431908;19;20155;-77
2022/09/11 10:17:37;;;;;;;7.22;5.40;;;;;18.90;94392.00;;;;7406552;19;20212;-76
2022/09/11 10:20:24;;;;;;;6.10;5.50;;;;;19.50;94396.00;;;;7407184;19;20128;-76
2022/09/11 10:22:55;;;;;;;5.70;5.10;;;;;20.10;94402.00;;;;7406859;19;20145;-76
2022/09/11 10:25:46;;;;;;;6.28;5.65;;;;;19.90;94387.00;;;;7403029;19;20148;-76
2022/09/11 10:28:18;;;;;;;5.90;5.40;;;;;20.40;94388.00;;;;7403582;19;20143;-77
2022/09/11 10:30:59;;;;;;;6.30;5.70;;;;;20.10;94378.00;;;;7404798;19;20194;-77
2022/09/11 10:33:33;;;;;;;6.65;4.82;;;;;20.10;94380.00;;;;7402628;19;20164;-76
2022/09/11 10:36:09;;;;;;;9.48;4.70;;;;;20.30;94397.00;;;;7407675;19;20176;-75
2022/09/11 10:38:47;;;;;;;6.45;4.57;;;;;19.00;94408.00;;;;7406092;19;20132;-77
2022/09/11 10:41:33;;;;;;;8.10;5.00;;;;;18.10;94411.00;;;;7405364;19;20116;-76
2022/09/11 10:44:11;;;;;;;7.63;4.85;;;;;17.60;94411.00;;;;7403009;19;20517;-75
2022/09/11 10:46:45;;;;;;;5.70;4.30;;;;;17.30;94423.00;;;;7404452;19;20169;-76
2022/09/11 10:49:21;;;;;;;8.02;4.60;;;;;16.90;94395.00;;;;7395880;19;20163;-76
2022/09/11 10:52:23;;;;;;;5.50;5.00;;;;;17.90;94397.00;;;;7395585;19;20140;-75
2022/09/11 10:55:04;;;;;;;5.93;3.97;;;;;18.80;94382.00;;;;7395347;19;20129;-77
2022/09/11 10:57:44;;;;;;;7.22;4.55;;;;;19.50;94394.00;;;;7390537;19;20176;-76
2022/09/11 11:00:11;;;;;;;5.22;4.72;;;;;19.40;94387.00;;;;7395304;19;20135;-74
2022/09/11 11:02:58;;;;;;;4.18;3.78;;;;;19.40;94391.00;;;;7395445;19;20129;-75
2022/09/11 11:05:32;;;;;;;6.55;4.47;;;;;19.80;94380.00;;;;7388874;19;20183;-74
2022/09/11 11:08:24;;;;;;;4.50;4.10;;;;;20.00;94394.00;;;;7395382;19;20129;-74
2022/09/11 11:11:13;;;;;;;5.25;3.95;;;;;20.40;94387.00;;;;7396640;19;20160;-75
2022/09/11 11:14:03;;;;;;;6.43;4.00;;;;;20.70;94383.00;;;;7394215;19;20223;-74
2022/09/11 11:16:49;;;;;;;6.97;4.53;;;;;20.40;94383.00;;;;7394818;19;20137;-75
2022/09/11 11:19:50;;;;;;;4.32;3.92;;;;;20.00;94382.00;;;;7395578;19;20664;-74
2022/09/11 11:22:39;;;;;;;5.43;4.25;;;;;20.00;94384.00;;;;7392883;19;20160;-76
2022/09/11 11:25:43;;;;;;;4.30;3.90;;;;;20.00;94380.00;;;;7391624;19;20133;-76
2022/09/11 11:28:39;;;;;;;4.95;3.88;;;;;20.60;94373.00;;;;7384777;19;20192;-75
2022/09/11 11:31:50;;;;;;;4.28;3.70;;;;;21.40;94382.00;;;;7392544;19;20128;-76
2022/09/11 11:34:29;;;;;;;3.95;3.42;;;;;21.00;94375.00;;;;7389900;19;20152;-75
2022/09/11 11:37:20;;;;;;;3.20;3.00;;;;;21.10;94377.00;;;;7393544;19;20137;-76
2022/09/11 11:39:50;;;;;;;4.88;3.55;;;;;21.10;94379.00;;;;7389740;19;20253;-75
2022/09/11 11:42:49;;;;;;;4.40;3.60;;;;;21.50;94379.00;;;;7390287;19;20164;-76
2022/09/11 11:45:30;;;;;;;3.88;3.38;;;;;21.80;94384.00;;;;7392476;19;20197;-75
2022/09/11 11:48:28;;;;;;;4.00;3.50;;;;;22.10;94375.00;;;;7388514;19;20681;-74
2022/09/11 11:51:05;;;;;;;3.65;3.28;;;;;22.10;94389.00;;;;7391029;19;20133;-76
2022/09/11 11:53:47;;;;;;;5.43;3.42;;;;;22.90;94380.00;;;;7388038;19;20180;-77
2022/09/11 11:56:39;;;;;;;3.55;3.17;;;;;23.30;94382.00;;;;7390155;19;20460;-73
2022/09/11 11:59:46;;;;;;;4.38;3.97;;;;;22.30;94378.00;;;;7389721;19;20152;-75
2022/09/11 12:02:20;;;;;;;4.18;3.45;;;;;22.50;94399.00;;;;7388734;19;20137;-77
2022/09/11 12:05:16;;;;;;;4.40;3.53;;;;;22.70;94378.00;;;;7390674;19;20606;-76
2022/09/11 12:07:46;;;;;;;4.15;3.00;;;;;23.30;94378.00;;;;7390355;19;20188;-77
2022/09/11 12:10:28;;;;;;;3.63;3.20;;;;;23.00;94377.00;;;;7388447;19;20148;-77
2022/09/11 12:13:00;;;;;;;4.15;3.30;;;;;22.20;94382.00;;;;7389413;19;20565;-78
2022/09/11 12:15:35;;;;;;;3.95;3.45;;;;;21.90;94385.00;;;;7388523;19;20148;-77
2022/09/11 12:18:15;;;;;;;3.47;3.17;;;;;22.30;94385.00;;;;7388943;19;20136;-76
2022/09/11 12:20:49;;;;;;;4.05;3.55;;;;;21.90;94393.00;;;;7388684;19;20518;-77
2022/09/11 12:23:53;;;;;;;6.18;3.63;;;;;21.90;94399.00;;;;7391181;19;20137;-75
2022/09/11 12:26:30;;;;;;;4.07;3.20;;;;;21.20;94401.00;;;;7386029;19;20125;-76
2022/09/11 12:29:17;;;;;;;3.75;3.33;;;;;21.40;94407.00;;;;7386160;19;20160;-77
2022/09/11 12:31:52;;;;;;;3.53;3.22;;;;;20.70;94409.00;;;;7387907;19;20498;-77
2022/09/11 12:34:42;;;;;;;4.90;3.30;;;;;21.10;94380.00;;;;7385576;19;20174;-77
2022/09/11 12:37:46;;;;;;;4.25;3.85;;;;;22.40;94394.00;;;;7390010;19;20145;-79
2022/09/11 12:40:48;;;;;;;6.05;3.20;;;;;21.50;94394.00;;;;7387397;19;20139;-78
2022/09/11 12:43:36;;;;;;;3.60;3.30;;;;;21.60;94388.00;;;;7384597;19;20148;-76
2022/09/11 12:46:26;;;;;;;4.05;3.67;;;;;22.30;94380.00;;;;7385492;19;20138;-77
2022/09/11 12:49:09;;;;;;;5.63;3.10;;;;;22.70;94396.00;;;;7388261;19;20149;-76
2022/09/11 12:51:58;;;;;;;3.45;2.70;;;;;21.80;94391.00;;;;7388535;19;20125;-78
2022/09/11 12:54:38;;;;;;;3.50;3.20;;;;;21.50;94384.00;;;;7385996;19;20200;-79
2022/09/11 12:57:18;;;;;;;4.85;3.40;;;;;20.90;94383.00;;;;7389370;19;20132;-78
2022/09/11 12:59:58;;;;;;;4.05;3.20;;;;;21.20;94396.00;;;;7384302;19;20148;-78
2022/09/11 13:02:40;;;;;;;6.47;3.10;;;;;20.90;94396.00;;;;7385802;19;20125;-79
2022/09/11 13:05:45;;;;;;;3.00;2.80;;;;;20.60;94401.00;;;;7385825;19;20203;-78
2022/09/11 13:08:22;;;;;;;3.15;2.83;;;;;20.20;94396.00;;;;7384806;19;20148;-78